createdAt,value
2022-12-01T00:01:53.743Z,96516.91
2022-12-01T00:04:25.964Z,96509.54
2022-12-01T00:06:54.084Z,96510.98
2022-12-01T01:50:49.878Z,96486.80
2022-12-01T01:53:45.044Z,96486.56
2022-12-01T01:56:13.379Z,96485.67
2022-12-01T01:58:42.654Z,96486.15
2022-12-01T02:01:11.060Z,96488.29
2022-12-01T02:03:42.341Z,96486.61
2022-12-01T02:06:12.172Z,96484.05
2022-12-01T02:08:43.797Z,96484.69
2022-12-01T02:15:56.303Z,96477.58
2022-12-01T02:24:49.714Z,96475.64
2022-12-01T02:27:36.599Z,96478.48
2022-12-01T02:48:03.095Z,96478.02
2022-12-01T02:50:35.256Z,96478.15
2022-12-01T02:53:04.580Z,96481.30
2022-12-01T02:55:33.820Z,96479.52
2022-12-01T02:58:02.121Z,96475.59
2022-12-01T03:06:39.603Z,96475.29
2022-12-01T03:09:31.095Z,96471.78
2022-12-01T03:12:08.423Z,96472.52
2022-12-01T03:14:49.360Z,96471.54
2022-12-01T03:32:44.179Z,96463.73
2022-12-01T03:35:19.766Z,96468.60
2022-12-01T03:37:59.502Z,96478.61
2022-12-01T03:40:31.186Z,96473.86
2022-12-01T03:43:03.731Z,96473.54
2022-12-01T03:45:41.061Z,96472.21
2022-12-01T03:48:09.105Z,96475.25
2022-12-01T03:51:01.126Z,96470.62
2022-12-01T03:53:35.593Z,96468.55
2022-12-01T03:56:07.318Z,96467.27
2022-12-01T03:58:40.891Z,96465.17
2022-12-01T04:01:09.575Z,96461.17
2022-12-01T04:04:08.098Z,96464.17
2022-12-01T04:22:13.530Z,96472.47
2022-12-01T04:24:42.137Z,96476.02
2022-12-01T04:27:10.205Z,96476.55
2022-12-01T04:29:38.225Z,96470.07
2022-12-01T04:32:06.551Z,96469.50
2022-12-01T04:34:34.696Z,96474.06
2022-12-01T04:37:03.774Z,96472.59
2022-12-01T04:39:31.983Z,96474.58
2022-12-01T04:42:00.129Z,96470.70
2022-12-01T04:44:34.282Z,96469.33
2022-12-01T04:47:04.259Z,96466.70
2022-12-01T04:49:33.451Z,96472.90
2022-12-01T04:52:01.551Z,96476.52
2022-12-01T04:54:29.775Z,96476.64
2022-12-01T04:56:57.757Z,96475.26
2022-12-01T04:59:25.831Z,96476.42
2022-12-01T05:01:53.954Z,96473.80
2022-12-01T05:04:22.208Z,96475.04
2022-12-01T05:06:50.399Z,96475.88
2022-12-01T05:09:21.102Z,96478.30
2022-12-01T05:11:49.431Z,96477.18
2022-12-01T05:14:17.498Z,96480.33
2022-12-01T05:16:45.707Z,96478.67
2022-12-01T05:23:21.054Z,96476.00
2022-12-01T05:25:48.899Z,96473.27
2022-12-01T05:28:16.880Z,96475.23
2022-12-01T05:30:44.927Z,96479.76
2022-12-01T05:33:13.019Z,96481.72
2022-12-01T05:35:41.295Z,96480.61
2022-12-01T05:38:09.300Z,96480.86
2022-12-01T05:40:38.331Z,96481.45
2022-12-01T05:43:07.605Z,96482.05
2022-12-01T05:45:38.915Z,96480.27
2022-12-01T05:48:06.929Z,96485.46
2022-12-01T05:50:38.644Z,96487.41
2022-12-01T05:53:08.018Z,96485.45
2022-12-01T05:55:36.061Z,96492.67
2022-12-01T05:58:04.090Z,96490.35
2022-12-01T06:00:31.998Z,96491.95
2022-12-01T06:02:59.995Z,96491.31
2022-12-01T06:05:28.711Z,96492.54
2022-12-01T06:07:56.743Z,96493.25
2022-12-01T06:10:24.657Z,96498.05
2022-12-01T06:12:52.678Z,96496.36
2022-12-01T06:15:20.667Z,96490.08
2022-12-01T06:17:48.663Z,96490.77
2022-12-01T06:20:16.784Z,96489.05
2022-12-01T06:22:44.803Z,96486.65
2022-12-01T06:25:12.821Z,96483.74
2022-12-01T06:27:40.838Z,96482.54
2022-12-01T06:30:09.469Z,96483.88
2022-12-01T06:32:38.217Z,96481.45
2022-12-01T06:35:06.667Z,96482.77
2022-12-01T06:37:34.636Z,96482.03
2022-12-01T06:40:02.546Z,96480.05
2022-12-01T06:42:32.243Z,96483.36
2022-12-01T06:45:00.206Z,96480.70
2022-12-01T06:47:28.178Z,96483.27
2022-12-01T06:49:56.139Z,96486.32
2022-12-01T06:52:24.030Z,96485.52
2022-12-01T06:54:52.023Z,96487.75
2022-12-01T06:57:20.428Z,96482.31
2022-12-01T06:59:48.959Z,96481.41
2022-12-01T07:02:17.617Z,96476.63
2022-12-01T07:04:45.646Z,96480.05
2022-12-01T07:07:13.709Z,96480.84
2022-12-01T07:09:41.628Z,96478.25
2022-12-01T07:12:09.671Z,96474.79
2022-12-01T07:14:37.940Z,96479.49
2022-12-01T07:17:05.873Z,96476.36
2022-12-01T07:19:33.927Z,96472.35
2022-12-01T07:22:02.302Z,96472.38
2022-12-01T07:24:31.174Z,96476.83
2022-12-01T07:26:59.182Z,96479.04
2022-12-01T07:29:27.099Z,96472.64
2022-12-01T07:31:55.643Z,96475.38
2022-12-01T07:34:23.593Z,96477.71
2022-12-01T07:36:51.550Z,96475.77
2022-12-01T07:39:19.626Z,96475.71
2022-12-01T07:41:47.611Z,96471.10
2022-12-01T07:44:15.692Z,96469.42
2022-12-01T07:46:43.698Z,96469.27
2022-12-01T07:49:15.000Z,96471.48
2022-12-01T07:51:42.981Z,96469.90
2022-12-01T07:54:14.311Z,96467.59
2022-12-01T07:56:42.478Z,96465.44
2022-12-01T07:59:12.056Z,96459.16
2022-12-01T08:01:44.243Z,96462.36
2022-12-01T08:04:12.774Z,96460.55
2022-12-01T08:06:40.765Z,96459.13
2022-12-01T08:09:08.652Z,96456.06
2022-12-01T08:11:36.781Z,96451.27
2022-12-01T08:14:04.973Z,96454.52
2022-12-01T08:16:32.970Z,96453.86
2022-12-01T08:19:01.764Z,96453.11
2022-12-01T08:21:29.673Z,96453.92
2022-12-01T08:23:58.565Z,96448.54
2022-12-01T08:26:27.729Z,96445.77
2022-12-01T08:28:55.942Z,96441.49
2022-12-01T08:31:29.874Z,96443.34
2022-12-01T08:33:58.197Z,96440.84
2022-12-01T08:36:26.381Z,96438.36
2022-12-01T08:38:55.966Z,96439.14
2022-12-01T08:41:25.229Z,96438.73
2022-12-01T08:43:58.262Z,96435.69
2022-12-01T08:46:29.251Z,96439.94
2022-12-01T08:48:57.532Z,96436.13
2022-12-01T08:51:26.975Z,96434.38
2022-12-01T08:53:56.464Z,96430.52
2022-12-01T08:56:37.200Z,96426.35
2022-12-01T08:59:05.510Z,96424.20
2022-12-01T09:01:34.076Z,96424.04
2022-12-01T09:04:06.322Z,96416.67
2022-12-01T09:06:40.633Z,96416.60
2022-12-01T09:09:14.602Z,96417.16
2022-12-01T09:11:46.063Z,96413.30
2022-12-01T09:14:15.553Z,96411.80
2022-12-01T09:16:45.469Z,96409.73
2022-12-01T09:19:19.203Z,96409.61
2022-12-01T09:21:51.682Z,96413.65
2022-12-01T09:24:19.694Z,96413.52
2022-12-01T09:26:47.633Z,96412.95
2022-12-01T09:29:16.903Z,96410.59
2022-12-01T09:31:45.078Z,96404.13
2022-12-01T09:34:19.231Z,96399.55
2022-12-01T09:36:47.965Z,96395.20
2022-12-01T09:39:20.907Z,96392.64
2022-12-01T09:42:06.155Z,96389.21
2022-12-01T09:44:49.160Z,96386.39
2022-12-01T09:47:22.353Z,96383.56
2022-12-01T09:50:07.819Z,96380.94
2022-12-01T09:52:44.820Z,96376.14
2022-12-01T09:55:15.364Z,96376.88
2022-12-01T09:57:46.954Z,96377.46
2022-12-01T10:00:18.550Z,96380.25
2022-12-01T10:02:55.858Z,96378.67
2022-12-01T10:05:29.587Z,96380.38
2022-12-01T10:08:04.897Z,96376.86
2022-12-01T10:11:04.435Z,96374.65
2022-12-01T10:13:33.414Z,96367.89
2022-12-01T10:16:12.892Z,96371.24
2022-12-01T10:18:54.479Z,96372.15
2022-12-01T10:21:28.412Z,96367.12
2022-12-01T10:24:30.490Z,96366.33
2022-12-01T10:27:08.653Z,96362.02
2022-12-01T10:29:48.057Z,96356.98
2022-12-01T10:32:23.857Z,96356.04
2022-12-01T10:34:52.025Z,96356.89
2022-12-01T10:37:29.149Z,96354.10
2022-12-01T10:39:58.616Z,96355.84
2022-12-01T10:42:29.513Z,96353.11
2022-12-01T10:45:01.966Z,96347.71
2022-12-01T10:47:31.604Z,96347.58
2022-12-01T10:49:59.594Z,96345.16
2022-12-01T10:52:36.765Z,96339.42
2022-12-01T10:55:26.974Z,96334.70
2022-12-01T10:57:57.857Z,96332.17
2022-12-01T11:03:30.384Z,96322.35
2022-12-01T11:06:01.923Z,96323.72
2022-12-01T11:08:53.896Z,96322.55
2022-12-01T11:11:33.016Z,96323.52
2022-12-01T11:14:06.155Z,96324.51
2022-12-01T11:16:35.792Z,96318.90
2022-12-01T11:19:14.480Z,96316.48
2022-12-01T11:21:51.368Z,96315.36
2022-12-01T11:24:28.054Z,96314.81
2022-12-01T11:26:58.655Z,96313.67
2022-12-01T11:29:32.167Z,96307.54
2022-12-01T11:32:01.801Z,96305.32
2022-12-01T11:34:34.574Z,96307.89
2022-12-01T11:37:07.875Z,96306.59
2022-12-01T11:39:41.777Z,96306.12
2022-12-01T11:42:31.330Z,96304.30
2022-12-01T11:45:21.229Z,96307.55
2022-12-01T11:48:06.474Z,96305.11
2022-12-01T11:50:37.871Z,96303.52
2022-12-01T11:53:33.691Z,96301.88
2022-12-01T11:56:23.633Z,96297.48
2022-12-01T11:59:10.607Z,96295.46
2022-12-01T12:02:20.737Z,96289.32
2022-12-01T12:05:04.263Z,96291.86
2022-12-01T12:07:48.517Z,96293.48
2022-12-01T12:10:56.937Z,96299.17
2022-12-01T12:14:10.117Z,96299.05
2022-12-01T12:16:44.383Z,96296.07
2022-12-01T12:19:18.603Z,96295.67
2022-12-01T12:22:18.198Z,96297.83
2022-12-01T12:25:27.951Z,96296.23
2022-12-01T12:28:18.194Z,96293.73
2022-12-01T12:31:24.640Z,96291.15
2022-12-01T12:34:15.178Z,96297.02
2022-12-01T12:37:07.873Z,96295.44
2022-12-01T12:40:07.271Z,96294.55
2022-12-01T12:42:53.540Z,96297.35
2022-12-01T12:45:32.499Z,96299.42
2022-12-01T12:48:21.785Z,96302.83
2022-12-01T12:51:13.564Z,96297.91
2022-12-01T12:54:11.905Z,96297.52
2022-12-01T12:56:46.308Z,96298.25
2022-12-01T12:59:33.817Z,96296.30
2022-12-01T13:02:15.981Z,96301.63
2022-12-01T13:05:10.433Z,96300.19
2022-12-01T13:07:46.461Z,96301.63
2022-12-01T13:10:41.143Z,96305.52
2022-12-01T13:13:32.286Z,96307.73
2022-12-01T13:16:03.058Z,96305.92
2022-12-01T13:18:49.826Z,96311.15
2022-12-01T13:21:21.408Z,96312.39
2022-12-01T13:23:52.324Z,96310.52
2022-12-01T13:26:21.727Z,96309.52
2022-12-01T13:28:56.258Z,96313.05
2022-12-01T13:31:24.528Z,96317.02
2022-12-01T13:34:01.919Z,96322.58
2022-12-01T13:36:46.763Z,96322.90
2022-12-01T13:39:24.682Z,96322.65
2022-12-01T13:42:20.542Z,96322.39
2022-12-01T13:44:57.288Z,96318.61
2022-12-01T13:47:57.687Z,96312.30
2022-12-01T13:50:43.207Z,96314.22
2022-12-01T13:53:25.255Z,96311.96
2022-12-01T13:56:23.584Z,96308.70
2022-12-01T13:58:54.310Z,96311.93
2022-12-01T14:01:22.912Z,96310.11
2022-12-01T14:04:03.766Z,96306.04
2022-12-01T14:06:53.146Z,96310.59
2022-12-01T14:09:31.848Z,96310.67
2022-12-01T14:12:06.682Z,96313.48
2022-12-01T14:14:42.113Z,96316.20
2022-12-01T14:17:25.000Z,96315.39
2022-12-01T14:19:54.143Z,96313.09
2022-12-01T14:22:34.285Z,96315.19
2022-12-01T14:25:07.746Z,96318.30
2022-12-01T14:27:43.898Z,96314.33
2022-12-01T14:30:41.390Z,96319.73
2022-12-01T14:33:37.408Z,96321.73
2022-12-01T14:44:36.522Z,96320.69
2022-12-01T14:47:04.744Z,96313.63
2022-12-01T14:50:15.047Z,96309.13
2022-12-01T14:53:04.003Z,96307.94
2022-12-01T14:55:40.238Z,96309.20
2022-12-01T14:58:16.973Z,96307.73
2022-12-01T15:01:14.355Z,96308.23
2022-12-01T15:03:49.121Z,96312.09
2022-12-01T15:06:28.772Z,96317.87
2022-12-01T15:09:31.990Z,96318.48
2022-12-01T15:12:02.294Z,96320.46
2022-12-01T15:14:34.782Z,96319.21
2022-12-01T15:17:05.426Z,96320.30
2022-12-01T15:19:38.588Z,96321.09
2022-12-01T15:22:14.043Z,96323.57
2022-12-01T15:24:43.077Z,96324.28
2022-12-01T15:27:31.282Z,96324.11
2022-12-01T15:30:04.840Z,96323.65
2022-12-01T15:32:39.449Z,96323.39
2022-12-01T15:35:20.133Z,96322.30
2022-12-01T15:37:49.254Z,96326.68
2022-12-01T15:43:17.761Z,96332.11
2022-12-01T15:45:55.440Z,96331.55
2022-12-01T15:48:35.429Z,96331.10
2022-12-01T15:51:18.678Z,96334.95
2022-12-01T15:53:59.180Z,96335.56
2022-12-01T15:56:30.939Z,96334.08
2022-12-01T15:59:14.151Z,96339.57
2022-12-01T16:01:44.292Z,96334.69
2022-12-01T16:04:25.223Z,96336.98
2022-12-01T16:07:05.055Z,96336.04
2022-12-01T16:09:37.195Z,96337.94
2022-12-01T16:12:21.999Z,96337.77
2022-12-01T16:15:08.543Z,96340.31
2022-12-01T16:17:48.746Z,96339.84
2022-12-01T16:20:17.619Z,96342.36
2022-12-01T16:22:47.896Z,96341.27
2022-12-01T16:25:31.523Z,96343.60
2022-12-01T16:28:00.665Z,96344.08
2022-12-01T16:30:38.524Z,96348.30
2022-12-01T16:33:17.930Z,96348.49
2022-12-01T16:35:45.988Z,96344.80
2022-12-01T16:38:20.368Z,96345.80
2022-12-01T16:41:00.388Z,96346.05
2022-12-01T16:43:29.737Z,96348.10
2022-12-01T16:46:00.524Z,96347.13
2022-12-01T16:48:28.885Z,96343.96
2022-12-01T16:50:57.479Z,96342.66
2022-12-01T16:53:25.393Z,96343.02
2022-12-01T16:55:56.054Z,96348.16
2022-12-01T16:58:24.541Z,96347.34
2022-12-01T17:00:53.405Z,96344.13
2022-12-01T17:03:24.134Z,96348.97
2022-12-01T17:05:52.961Z,96352.33
2022-12-01T17:08:21.762Z,96354.28
2022-12-01T17:10:51.171Z,96352.85
2022-12-01T17:13:24.507Z,96356.27
2022-12-01T17:15:54.849Z,96357.81
2022-12-01T17:18:24.106Z,96356.23
2022-12-01T17:21:04.308Z,96360.14
2022-12-01T17:23:33.494Z,96362.02
2022-12-01T17:26:01.533Z,96361.35
2022-12-01T17:28:29.424Z,96358.06
2022-12-01T17:31:00.837Z,96361.64
2022-12-01T17:33:29.705Z,96363.98
2022-12-01T17:36:03.370Z,96364.23
2022-12-01T17:38:33.913Z,96365.66
2022-12-01T17:41:05.321Z,96368.92
2022-12-01T17:43:35.325Z,96370.65
2022-12-01T17:46:05.828Z,96370.04
2022-12-01T17:48:42.402Z,96372.20
2022-12-01T17:51:11.502Z,96373.17
2022-12-01T17:53:40.384Z,96378.06
2022-12-01T17:56:10.398Z,96377.95
2022-12-01T17:58:38.842Z,96376.67
2022-12-01T18:01:14.506Z,96374.41
2022-12-01T18:03:42.812Z,96375.44
2022-12-01T18:06:13.021Z,96381.42
2022-12-01T18:08:41.942Z,96380.55
2022-12-01T18:11:12.874Z,96383.40
2022-12-01T18:13:43.970Z,96382.65
2022-12-01T18:16:18.886Z,96376.91
2022-12-01T18:18:46.895Z,96376.63
2022-12-01T18:21:17.718Z,96378.42
2022-12-01T18:23:50.938Z,96375.95
2022-12-01T18:26:21.949Z,96378.59
2022-12-01T18:28:57.501Z,96380.38
2022-12-01T18:31:25.757Z,96383.48
2022-12-01T18:33:54.295Z,96383.86
2022-12-01T18:36:24.362Z,96388.64
2022-12-01T18:38:54.622Z,96387.65
2022-12-01T18:41:22.611Z,96381.81
2022-12-01T18:43:51.467Z,96386.77
2022-12-01T18:46:21.013Z,96381.35
2022-12-01T18:48:51.678Z,96380.01
2022-12-01T18:51:21.172Z,96380.54
2022-12-01T18:53:54.412Z,96381.73
2022-12-01T18:56:22.514Z,96384.82
2022-12-01T18:59:11.155Z,96387.22
2022-12-01T19:01:43.825Z,96386.55
2022-12-01T19:04:12.408Z,96387.94
2022-12-01T19:06:42.682Z,96381.80
2022-12-01T19:09:12.638Z,96383.98
2022-12-01T19:11:41.643Z,96383.34
2022-12-01T19:14:18.823Z,96381.34
2022-12-01T19:16:47.407Z,96380.66
2022-12-01T19:19:16.265Z,96378.20
2022-12-01T19:21:45.321Z,96374.91
2022-12-01T19:24:13.500Z,96375.35
2022-12-01T19:26:41.506Z,96373.40
2022-12-01T19:29:09.508Z,96371.30
2022-12-01T19:31:37.687Z,96370.77
2022-12-01T19:34:05.740Z,96371.73
2022-12-01T19:36:33.671Z,96372.95
2022-12-01T19:39:04.458Z,96370.86
2022-12-01T19:41:38.760Z,96374.14
2022-12-01T19:44:07.358Z,96376.00
2022-12-01T19:46:35.332Z,96375.67
2022-12-01T19:49:04.213Z,96374.14
2022-12-01T19:51:37.506Z,96374.64
2022-12-01T19:54:08.561Z,96375.04
2022-12-01T19:56:36.465Z,96377.27
2022-12-01T19:59:07.039Z,96377.86
2022-12-01T20:01:35.088Z,96374.24
2022-12-01T20:04:04.120Z,96371.67
2022-12-01T20:06:34.092Z,96371.66
2022-12-01T20:09:04.491Z,96373.66
2022-12-01T20:11:35.537Z,96371.67
2022-12-01T20:14:07.551Z,96369.67
2022-12-01T20:16:35.682Z,96367.73
2022-12-01T20:19:05.202Z,96370.93
2022-12-01T20:21:35.463Z,96369.14
2022-12-01T20:24:06.617Z,96363.04
2022-12-01T20:26:39.385Z,96362.33
2022-12-01T20:29:13.227Z,96363.81
2022-12-01T20:31:42.337Z,96364.41
2022-12-01T20:34:16.717Z,96365.31
2022-12-01T20:36:44.876Z,96365.90
2022-12-01T20:39:14.028Z,96363.54
2022-12-01T20:41:43.151Z,96364.44
2022-12-01T20:44:12.378Z,96364.80
2022-12-01T20:46:45.331Z,96368.23
2022-12-01T20:49:15.443Z,96370.80
2022-12-01T20:51:43.328Z,96370.44
2022-12-01T20:54:30.239Z,96370.80
2022-12-01T20:56:59.149Z,96378.56
2022-12-01T20:59:27.833Z,96380.98
2022-12-01T21:01:55.918Z,96378.64
2022-12-01T21:04:23.917Z,96376.42
2022-12-01T21:06:56.041Z,96378.73
2022-12-01T21:09:24.523Z,96376.05
2022-12-01T21:12:11.568Z,96371.85
2022-12-01T21:14:42.595Z,96370.91
2022-12-01T21:17:33.200Z,96371.42
2022-12-01T21:20:39.372Z,96372.00
2022-12-01T21:23:14.558Z,96373.02
2022-12-01T21:25:43.816Z,96374.08
2022-12-01T21:28:25.929Z,96374.41
2022-12-01T21:31:07.893Z,96375.77
2022-12-01T21:33:37.278Z,96375.95
2022-12-01T21:36:28.902Z,96380.73
2022-12-01T21:39:09.774Z,96381.36
2022-12-01T21:41:38.044Z,96383.28
2022-12-01T21:44:21.231Z,96382.95
2022-12-01T21:46:56.062Z,96380.89
2022-12-01T21:49:35.636Z,96376.88
2022-12-01T21:52:12.162Z,96379.73
2022-12-01T21:54:40.237Z,96376.20
2022-12-01T21:57:26.447Z,96375.12
2022-12-01T21:59:58.823Z,96374.83
2022-12-01T22:02:49.620Z,96377.27
2022-12-01T22:05:31.521Z,96372.48
2022-12-01T22:08:23.253Z,96371.30
2022-12-01T22:11:13.090Z,96375.77
2022-12-01T22:13:45.360Z,96373.81
2022-12-01T22:16:25.993Z,96368.80
2022-12-01T22:18:56.661Z,96369.48
2022-12-01T22:21:30.474Z,96368.21
2022-12-01T22:24:10.586Z,96366.45
2022-12-01T22:26:46.287Z,96363.68
2022-12-01T22:29:31.201Z,96363.98
2022-12-01T22:32:48.568Z,96364.95
2022-12-01T22:35:55.209Z,96365.15
2022-12-01T22:38:25.855Z,96363.90
2022-12-01T22:41:19.970Z,96364.45
2022-12-01T22:44:01.907Z,96365.64
2022-12-01T22:46:36.083Z,96361.95
2022-12-01T22:49:10.199Z,96363.49
2022-12-01T22:52:14.208Z,96357.77
2022-12-01T22:54:49.231Z,96356.58
2022-12-01T22:57:33.457Z,96358.34
2022-12-01T23:00:14.141Z,96358.35
2022-12-01T23:02:42.213Z,96357.05
2022-12-01T23:05:23.044Z,96357.15
2022-12-01T23:07:52.177Z,96357.88
2022-12-01T23:10:22.280Z,96355.13
2022-12-01T23:12:53.131Z,96353.84
2022-12-01T23:15:27.353Z,96351.41
2022-12-01T23:17:55.479Z,96352.98
2022-12-01T23:20:33.109Z,96351.73
2022-12-01T23:23:04.792Z,96351.39
2022-12-01T23:25:34.632Z,96353.54
2022-12-01T23:28:08.294Z,96356.02
2022-12-01T23:30:39.121Z,96357.77
2022-12-01T23:33:15.426Z,96355.17
2022-12-01T23:35:57.625Z,96355.67
2022-12-01T23:38:37.552Z,96355.46
2022-12-01T23:41:10.890Z,96357.60
2022-12-01T23:43:42.439Z,96357.06
2022-12-01T23:46:16.816Z,96352.77
2022-12-01T23:48:56.501Z,96354.64
2022-12-01T23:51:29.944Z,96353.05
2022-12-01T23:54:00.870Z,96354.55
2022-12-01T23:56:31.688Z,96357.62
2022-12-01T23:59:01.239Z,96352.81
